Time;durP1;ratioP1;P1;durP2;ratioP2;P2;SDS_P1;SDS_P2;PMS_P1;PMS_P2;Temp;Humidity;BMP_temperature;BMP_pressure;BME280_temperature;BME280_humidity;BME280_pressure;Samples;Min_cycle;Max_cycle;Signal;HPM_P1;HPM_P2
2023/09/17 00:00:44;;;;;;;8.40;7.60;;;20.50;99.90;;;;;;6080551;23;20146;-72
2023/09/17 00:03:10;;;;;;;8.50;7.70;;;20.60;99.90;;;;;;6084182;23;20189;-71
2023/09/17 00:05:36;;;;;;;8.43;7.20;;;20.50;99.90;;;;;;6084352;23;20137;-71
2023/09/17 00:08:03;;;;;;;11.33;9.27;;;20.50;99.90;;;;;;6079974;23;20421;-71
2023/09/17 00:10:29;;;;;;;10.13;9.20;;;20.60;99.90;;;;;;6078894;23;20141;-73
2023/09/17 00:12:55;;;;;;;9.37;8.10;;;20.60;99.90;;;;;;6081351;23;20572;-71
2023/09/17 00:15:22;;;;;;;10.00;9.10;;;20.60;99.90;;;;;;6085115;23;20354;-71
2023/09/17 00:17:48;;;;;;;9.60;8.70;;;20.50;99.90;;;;;;6082426;23;20361;-71
2023/09/17 00:20:14;;;;;;;10.30;9.30;;;20.50;99.90;;;;;;6056509;23;20372;-73
2023/09/17 00:22:40;;;;;;;9.60;8.73;;;20.50;99.90;;;;;;6057651;23;20393;-72
2023/09/17 00:25:06;;;;;;;8.40;7.60;;;20.50;99.90;;;;;;6083837;23;20437;-70
2023/09/17 00:27:32;;;;;;;7.23;6.53;;;20.50;99.90;;;;;;6083477;23;20140;-71
2023/09/17 00:30:00;;;;;;;7.27;6.57;;;20.50;99.90;;;;;;6082590;23;20445;-72
2023/09/17 00:32:26;;;;;;;8.37;7.57;;;20.50;99.90;;;;;;6082752;23;20842;-71
2023/09/17 00:34:52;;;;;;;7.50;6.80;;;20.50;99.90;;;;;;6081040;23;20397;-71
2023/09/17 00:37:18;;;;;;;7.90;7.20;;;20.50;99.90;;;;;;6058013;23;20206;-73
2023/09/17 00:39:44;;;;;;;7.37;6.50;;;20.40;99.90;;;;;;6082133;23;20137;-70
2023/09/17 00:42:10;;;;;;;6.80;6.10;;;20.40;99.90;;;;;;6056008;23;20398;-71
2023/09/17 00:44:36;;;;;;;8.00;6.17;;;20.40;99.90;;;;;;6082292;23;20401;-71
2023/09/17 00:47:04;;;;;;;6.77;6.17;;;20.50;99.90;;;;;;6081861;23;20458;-73
2023/09/17 00:49:32;;;;;;;6.23;5.63;;;20.40;99.90;;;;;;6080105;23;20149;-71
2023/09/17 00:51:59;;;;;;;5.93;5.40;;;20.30;99.90;;;;;;6110216;23;20361;-72
2023/09/17 00:54:28;;;;;;;5.63;5.13;;;20.30;99.90;;;;;;6113057;23;20444;-73
2023/09/17 00:56:55;;;;;;;5.53;5.03;;;20.30;99.90;;;;;;6112598;23;20373;-71
2023/09/17 00:59:21;;;;;;;5.27;4.67;;;20.30;99.90;;;;;;6084440;23;20380;-72
2023/09/17 01:01:49;;;;;;;5.57;5.07;;;20.20;99.90;;;;;;6109378;23;20455;-72
2023/09/17 01:04:15;;;;;;;5.50;4.90;;;20.20;99.90;;;;;;6110896;23;20164;-72
2023/09/17 01:06:42;;;;;;;4.70;4.30;;;20.20;99.90;;;;;;6059636;23;20373;-72
2023/09/17 01:09:08;;;;;;;8.10;7.30;;;20.20;99.90;;;;;;6083438;23;20145;-71
2023/09/17 01:11:35;;;;;;;7.17;6.47;;;20.20;99.90;;;;;;6085603;23;20805;-73
2023/09/17 01:14:12;;;;;;;11.40;9.83;;;20.20;99.90;;;;;;6088135;23;20424;-73
2023/09/17 01:16:39;;;;;;;9.30;8.40;;;20.20;99.90;;;;;;6084492;23;20818;-72
2023/09/17 01:19:07;;;;;;;8.27;7.23;;;20.20;99.90;;;;;;6084186;23;20747;-71
2023/09/17 01:21:41;;;;;;;9.73;7.73;;;20.20;99.90;;;;;;6085593;23;20440;-73
2023/09/17 01:24:21;;;;;;;7.43;6.73;;;20.20;99.90;;;;;;6086303;23;20438;-73
2023/09/17 01:27:03;;;;;;;10.13;9.13;;;20.20;99.90;;;;;;6110763;23;20361;-73
2023/09/17 01:29:40;;;;;;;7.70;7.00;;;20.20;99.90;;;;;;6109264;23;20790;-72
2023/09/17 01:32:08;;;;;;;9.57;8.63;;;20.20;99.90;;;;;;6085313;23;20887;-72
2023/09/17 01:34:37;;;;;;;11.20;9.97;;;20.20;99.90;;;;;;6088900;23;20440;-71
2023/09/17 01:37:11;;;;;;;11.90;10.80;;;20.30;99.90;;;;;;6095294;23;20373;-71
2023/09/17 01:39:45;;;;;;;12.47;8.93;;;20.40;99.90;;;;;;6113748;23;20527;-71
2023/09/17 01:42:12;;;;;;;11.60;10.40;;;20.40;99.90;;;;;;6109013;23;20364;-72
2023/09/17 01:44:40;;;;;;;10.93;9.93;;;20.40;99.90;;;;;;6061495;23;20459;-72
2023/09/17 01:47:06;;;;;;;9.00;8.10;;;20.50;99.90;;;;;;6085329;23;20373;-70
2023/09/17 01:49:33;;;;;;;12.67;10.07;;;20.40;99.90;;;;;;6084784;23;20381;-71
2023/09/17 01:52:02;;;;;;;11.30;10.20;;;20.50;99.90;;;;;;6114031;23;20453;-71
2023/09/17 01:54:28;;;;;;;10.23;8.40;;;20.40;99.90;;;;;;6086531;23;20399;-72
2023/09/17 01:56:55;;;;;;;8.27;7.47;;;20.40;99.90;;;;;;6108329;23;20372;-70
2023/09/17 01:59:20;;;;;;;7.60;6.90;;;20.40;99.90;;;;;;6083661;23;20612;-72
2023/09/17 02:01:46;;;;;;;8.30;7.50;;;20.40;99.90;;;;;;6083731;23;20424;-70
2023/09/17 02:04:12;;;;;;;8.33;7.53;;;20.40;99.90;;;;;;6107473;23;20221;-72
2023/09/17 02:06:37;;;;;;;12.13;10.93;;;20.30;99.90;;;;;;6107444;23;20137;-70
2023/09/17 02:09:08;;;;;;;11.23;10.13;;;20.30;99.90;;;;;;6106136;23;20137;-71
2023/09/17 02:11:35;;;;;;;12.43;10.80;;;20.20;99.90;;;;;;6080711;23;20152;-72
2023/09/17 02:14:00;;;;;;;12.77;11.47;;;20.20;99.90;;;;;;6108763;23;20435;-71
2023/09/17 02:16:27;;;;;;;11.57;10.47;;;20.10;99.90;;;;;;6081993;23;20377;-72
2023/09/17 02:18:52;;;;;;;10.20;9.20;;;20.10;99.90;;;;;;6107295;23;20495;-71
2023/09/17 02:21:18;;;;;;;9.93;8.93;;;20.10;99.90;;;;;;6105775;23;20353;-74
2023/09/17 02:23:44;;;;;;;12.90;11.60;;;20.10;99.90;;;;;;6079802;23;20562;-71
2023/09/17 02:26:10;;;;;;;10.60;9.60;;;20.20;99.90;;;;;;6080235;23;20155;-72
2023/09/17 02:28:36;;;;;;;10.33;9.33;;;20.20;99.90;;;;;;6105425;23;20392;-70
2023/09/17 02:31:02;;;;;;;12.53;11.33;;;20.10;99.90;;;;;;6106174;23;20188;-71
2023/09/17 02:33:31;;;;;;;9.70;8.90;;;20.10;99.90;;;;;;6080262;23;20192;-70
2023/09/17 02:35:57;;;;;;;10.43;9.43;;;20.20;99.90;;;;;;6056155;23;20380;-69
2023/09/17 02:38:22;;;;;;;10.43;9.47;;;20.10;99.90;;;;;;6079793;23;20401;-71
2023/09/17 02:40:48;;;;;;;15.17;10.73;;;20.10;99.90;;;;;;6104491;23;20144;-70
2023/09/17 02:43:16;;;;;;;9.30;8.40;;;20.10;99.90;;;;;;6080569;23;20177;-72
2023/09/17 02:45:42;;;;;;;8.80;7.93;;;20.10;99.90;;;;;;6105948;23;20373;-71
2023/09/17 02:48:08;;;;;;;8.63;7.83;;;20.10;99.90;;;;;;6079437;23;20184;-71
2023/09/17 02:50:33;;;;;;;11.37;10.20;;;20.10;99.90;;;;;;6104777;23;20384;-72
2023/09/17 02:53:00;;;;;;;10.73;9.63;;;20.00;99.90;;;;;;6077948;23;20188;-71
2023/09/17 02:55:25;;;;;;;9.60;8.70;;;20.00;99.90;;;;;;6103901;23;20137;-72
2023/09/17 02:57:51;;;;;;;9.37;8.40;;;20.00;99.90;;;;;;6078030;23;20793;-71
2023/09/17 03:00:17;;;;;;;8.33;7.53;;;20.00;99.90;;;;;;6080643;23;20183;-71
2023/09/17 03:02:47;;;;;;;7.80;7.00;;;20.00;99.90;;;;;;6083905;23;20200;-73
2023/09/17 03:05:14;;;;;;;7.90;7.20;;;20.00;99.90;;;;;;6078690;23;20380;-71
2023/09/17 03:07:40;;;;;;;8.93;8.03;;;19.90;99.90;;;;;;6078027;23;20372;-71
2023/09/17 03:10:11;;;;;;;8.53;7.77;;;19.90;99.90;;;;;;6102338;23;20647;-71
2023/09/17 03:12:38;;;;;;;7.57;6.87;;;19.90;99.90;;;;;;6078591;23;20417;-70
2023/09/17 03:15:08;;;;;;;8.07;7.20;;;19.90;99.90;;;;;;6081918;23;20441;-72
2023/09/17 03:17:37;;;;;;;7.67;6.97;;;19.90;99.90;;;;;;6082111;23;20457;-71
2023/09/17 03:20:13;;;;;;;8.80;7.90;;;19.90;99.90;;;;;;6081344;23;20376;-71
2023/09/17 03:22:40;;;;;;;8.10;7.30;;;19.90;99.90;;;;;;6079752;23;20383;-73
2023/09/17 03:25:06;;;;;;;8.67;7.77;;;19.90;99.90;;;;;;6079059;23;20423;-70
2023/09/17 03:27:33;;;;;;;9.47;8.57;;;19.90;99.90;;;;;;6079054;23;20695;-71
2023/09/17 03:30:03;;;;;;;9.07;8.17;;;19.90;99.90;;;;;;6079172;23;20403;-71
2023/09/17 03:32:29;;;;;;;9.30;8.40;;;19.90;99.90;;;;;;6077765;23;20695;-71
2023/09/17 03:34:56;;;;;;;7.90;7.20;;;19.80;99.90;;;;;;6103529;23;20408;-71
2023/09/17 03:37:22;;;;;;;10.13;9.20;;;19.80;99.90;;;;;;6103881;23;20365;-71
2023/09/17 03:40:10;;;;;;;7.97;7.17;;;19.70;99.90;;;;;;6103862;23;20357;-71
2023/09/17 03:42:38;;;;;;;7.83;7.13;;;19.70;99.90;;;;;;6076387;23;20160;-70
2023/09/17 03:45:09;;;;;;;7.50;6.80;;;19.70;99.90;;;;;;6104612;23;20368;-71
2023/09/17 03:47:45;;;;;;;6.67;6.17;;;19.70;99.90;;;;;;6102691;23;20756;-70
2023/09/17 03:50:13;;;;;;;6.93;6.33;;;19.70;99.90;;;;;;6076833;23;20385;-71
2023/09/17 03:52:42;;;;;;;7.27;6.67;;;19.60;99.90;;;;;;6076772;23;20877;-71
2023/09/17 03:55:08;;;;;;;8.30;7.47;;;19.60;99.90;;;;;;6076347;23;20739;-71
2023/09/17 03:57:36;;;;;;;7.57;6.87;;;19.60;99.90;;;;;;6101402;23;20369;-71
2023/09/17 04:00:07;;;;;;;9.30;8.50;;;19.60;99.90;;;;;;6075251;23;20471;-72
2023/09/17 04:02:38;;;;;;;8.57;7.83;;;19.50;99.90;;;;;;6101819;23;20349;-72
2023/09/17 04:05:12;;;;;;;8.37;7.67;;;19.50;99.90;;;;;;6075884;23;20670;-72
2023/09/17 04:07:40;;;;;;;8.80;7.90;;;19.50;99.90;;;;;;6101350;23;20375;-69
2023/09/17 04:10:07;;;;;;;10.00;8.90;;;19.50;99.90;;;;;;6100889;23;20631;-70
2023/09/17 04:12:34;;;;;;;10.17;9.17;;;19.50;99.90;;;;;;6101328;23;20479;-71
2023/09/17 04:15:00;;;;;;;10.30;9.30;;;19.50;99.90;;;;;;6105475;23;20365;-71
2023/09/17 04:17:26;;;;;;;9.37;8.47;;;19.50;99.90;;;;;;6104933;23;20353;-72
2023/09/17 04:19:52;;;;;;;10.30;9.40;;;19.50;99.90;;;;;;6103284;23;20365;-71
2023/09/17 04:22:18;;;;;;;9.30;8.40;;;19.50;99.90;;;;;;6078370;23;20160;-72
2023/09/17 04:24:44;;;;;;;9.37;8.47;;;19.40;99.90;;;;;;6104044;23;20228;-71
2023/09/17 04:27:11;;;;;;;10.73;9.60;;;19.40;99.90;;;;;;6078697;23;20159;-71
2023/09/17 04:29:36;;;;;;;8.47;7.77;;;19.40;99.90;;;;;;6079063;23;20159;-70
2023/09/17 04:32:03;;;;;;;8.90;8.10;;;19.40;99.90;;;;;;6099784;23;20421;-70
2023/09/17 04:34:29;;;;;;;9.60;8.70;;;19.40;99.90;;;;;;6105884;23;20345;-70
2023/09/17 04:36:58;;;;;;;8.60;7.80;;;19.30;99.90;;;;;;6105399;23;20369;-72
2023/09/17 04:39:25;;;;;;;9.13;8.27;;;19.30;99.90;;;;;;6102966;23;20377;-70
2023/09/17 04:41:51;;;;;;;8.30;7.50;;;19.20;99.90;;;;;;6102281;23;20385;-71
2023/09/17 04:44:17;;;;;;;7.50;6.80;;;19.20;99.90;;;;;;6103718;23;20396;-71
2023/09/17 04:46:43;;;;;;;7.67;6.90;;;19.20;99.90;;;;;;6104704;23;20144;-71
2023/09/17 04:49:09;;;;;;;7.93;7.20;;;19.10;99.90;;;;;;6105397;23;20133;-71
2023/09/17 04:51:35;;;;;;;8.80;8.00;;;19.10;99.90;;;;;;6108227;23;20365;-71
2023/09/17 04:54:03;;;;;;;8.60;7.67;;;19.10;99.90;;;;;;6101456;23;20435;-74
2023/09/17 04:56:30;;;;;;;8.40;7.70;;;19.10;99.90;;;;;;6076383;23;20377;-71
2023/09/17 04:59:00;;;;;;;9.47;8.67;;;19.00;99.90;;;;;;6076997;23;20391;-70
2023/09/17 05:01:27;;;;;;;12.13;8.60;;;19.00;99.90;;;;;;6075873;23;20862;-71
2023/09/17 05:03:53;;;;;;;9.57;8.67;;;18.90;99.90;;;;;;6076953;23;20408;-70
2023/09/17 05:06:19;;;;;;;8.67;7.97;;;18.90;99.90;;;;;;6101366;23;20372;-71
2023/09/17 05:08:45;;;;;;;8.27;7.47;;;18.90;99.90;;;;;;6077650;23;20432;-71
2023/09/17 05:11:11;;;;;;;7.67;7.07;;;18.90;99.90;;;;;;6101643;23;20409;-70
2023/09/17 05:13:38;;;;;;;7.93;7.23;;;18.80;99.90;;;;;;6076368;23;20428;-70
2023/09/17 05:16:04;;;;;;;8.50;7.80;;;18.80;99.90;;;;;;6101815;23;20481;-71
2023/09/17 05:18:30;;;;;;;8.00;7.20;;;18.80;99.90;;;;;;6075497;23;20148;-71
2023/09/17 05:20:56;;;;;;;7.87;7.17;;;18.80;99.90;;;;;;6078399;23;20369;-70
2023/09/17 05:23:23;;;;;;;6.83;6.23;;;18.80;99.90;;;;;;6104326;23;20397;-72
2023/09/17 05:25:55;;;;;;;8.10;7.40;;;18.80;99.90;;;;;;6100773;23;20417;-71
2023/09/17 05:28:23;;;;;;;6.57;5.90;;;18.80;99.90;;;;;;6102399;23;20793;-70
2023/09/17 05:30:49;;;;;;;7.27;6.33;;;18.80;99.90;;;;;;6087376;23;20429;-71
2023/09/17 05:33:15;;;;;;;10.03;9.13;;;18.90;99.90;;;;;;6051096;23;20437;-71
2023/09/17 05:35:42;;;;;;;8.77;7.87;;;18.80;99.90;;;;;;6051556;23;20696;-71
2023/09/17 05:38:07;;;;;;;9.10;8.30;;;18.80;99.90;;;;;;6049503;23;20473;-71
2023/09/17 05:40:34;;;;;;;8.23;7.43;;;18.80;99.90;;;;;;6048809;23;20154;-70
2023/09/17 05:43:00;;;;;;;8.30;7.43;;;18.90;99.90;;;;;;6075431;23;20394;-70
2023/09/17 05:45:26;;;;;;;8.30;7.50;;;18.90;99.90;;;;;;6048476;23;20188;-69
2023/09/17 05:47:52;;;;;;;7.10;6.47;;;19.00;99.90;;;;;;6074500;23;20145;-71
2023/09/17 05:50:18;;;;;;;7.07;6.47;;;19.00;99.90;;;;;;6075216;23;20421;-71
2023/09/17 05:52:44;;;;;;;6.33;5.83;;;19.10;99.90;;;;;;6049730;23;20165;-71
2023/09/17 05:55:10;;;;;;;7.40;6.70;;;19.10;99.90;;;;;;6050212;23;20373;-73
2023/09/17 05:57:36;;;;;;;8.20;7.50;;;19.10;99.90;;;;;;6051347;23;20373;-71
2023/09/17 06:00:04;;;;;;;6.90;6.20;;;19.20;99.90;;;;;;6049363;23;20164;-70
2023/09/17 06:02:40;;;;;;;7.27;6.40;;;19.20;99.90;;;;;;6076916;23;20362;-73
2023/09/17 06:05:07;;;;;;;6.90;6.30;;;19.30;99.90;;;;;;6050063;23;20378;-70
2023/09/17 06:07:32;;;;;;;6.57;5.97;;;19.30;99.90;;;;;;6076405;23;20365;-72
2023/09/17 06:09:58;;;;;;;8.03;7.27;;;19.40;99.90;;;;;;6051522;23;20156;-71
2023/09/17 06:12:24;;;;;;;9.83;8.90;;;19.50;99.90;;;;;;6077022;23;20405;-71
2023/09/17 06:14:50;;;;;;;10.13;9.13;;;19.50;99.90;;;;;;6076843;23;20251;-71
2023/09/17 06:17:16;;;;;;;8.80;8.00;;;19.60;99.90;;;;;;6050899;23;20213;-70
2023/09/17 06:19:42;;;;;;;7.83;7.10;;;19.60;99.90;;;;;;6049542;23;20727;-72
2023/09/17 06:22:11;;;;;;;8.83;7.97;;;19.70;99.90;;;;;;6028901;23;20177;-71
2023/09/17 06:24:37;;;;;;;8.30;7.50;;;19.70;99.90;;;;;;6050598;23;20449;-71
2023/09/17 06:27:03;;;;;;;10.13;8.63;;;19.70;99.90;;;;;;6025991;23;20370;-72
2023/09/17 06:29:29;;;;;;;9.67;8.77;;;19.70;99.90;;;;;;6031990;23;20381;-71
2023/09/17 06:31:56;;;;;;;10.00;9.00;;;19.80;99.90;;;;;;6082163;23;20463;-72
2023/09/17 06:34:22;;;;;;;10.00;9.00;;;19.80;99.90;;;;;;6105270;23;20447;-72
2023/09/17 06:36:49;;;;;;;7.80;7.13;;;19.80;99.90;;;;;;6080493;23;20747;-71
2023/09/17 06:39:15;;;;;;;7.63;7.03;;;19.80;99.90;;;;;;6059302;23;20140;-71
2023/09/17 06:41:41;;;;;;;9.00;8.17;;;19.90;99.90;;;;;;6083601;23;20369;-70
2023/09/17 06:44:07;;;;;;;9.60;8.70;;;19.90;99.90;;;;;;6107392;23;20490;-71
2023/09/17 06:46:32;;;;;;;8.40;7.60;;;20.00;99.90;;;;;;6107065;23;20140;-70
2023/09/17 06:48:58;;;;;;;10.30;8.33;;;20.00;99.90;;;;;;6104240;23;20141;-71
2023/09/17 06:51:23;;;;;;;7.50;6.80;;;20.10;99.90;;;;;;6108104;23;20140;-71
2023/09/17 06:53:49;;;;;;;6.70;6.10;;;20.10;99.90;;;;;;6105013;23;20215;-70
2023/09/17 06:56:15;;;;;;;7.20;6.50;;;20.20;99.90;;;;;;6106786;23;20191;-71
2023/09/17 06:58:42;;;;;;;7.70;7.00;;;20.20;99.90;;;;;;6108411;23;20137;-71
2023/09/17 07:01:10;;;;;;;8.77;7.93;;;20.30;99.90;;;;;;6081606;23;20420;-71
2023/09/17 07:03:36;;;;;;;7.80;7.10;;;20.40;99.90;;;;;;6109800;23;20435;-72
2023/09/17 07:06:01;;;;;;;8.33;7.50;;;20.40;99.90;;;;;;6108777;23;20365;-73
2023/09/17 07:08:27;;;;;;;7.27;6.67;;;20.50;99.90;;;;;;6082882;23;20191;-72
2023/09/17 07:10:52;;;;;;;8.23;7.27;;;20.50;99.90;;;;;;6082726;23;20144;-72
2023/09/17 07:13:18;;;;;;;7.37;6.67;;;20.60;99.90;;;;;;6083222;23;20200;-73
2023/09/17 07:15:46;;;;;;;6.83;6.23;;;20.60;99.90;;;;;;6086839;23;20176;-74
2023/09/17 07:18:12;;;;;;;7.40;6.73;;;20.60;99.90;;;;;;6082258;23;20141;-71
2023/09/17 07:20:38;;;;;;;7.27;6.03;;;20.70;99.90;;;;;;6108452;23;20364;-71
2023/09/17 07:23:04;;;;;;;9.33;8.43;;;20.70;99.90;;;;;;6109044;23;20403;-71
2023/09/17 07:25:29;;;;;;;7.40;6.80;;;20.80;99.90;;;;;;6108695;23;20144;-73
2023/09/17 07:27:57;;;;;;;7.00;5.93;;;20.80;99.90;;;;;;6109215;23;20429;-72
2023/09/17 07:30:23;;;;;;;6.43;5.83;;;20.90;99.90;;;;;;6109760;23;20188;-73
2023/09/17 07:32:48;;;;;;;7.20;6.50;;;20.90;99.90;;;;;;6109315;23;20447;-76
2023/09/17 07:35:14;;;;;;;6.30;5.80;;;21.00;99.90;;;;;;6059411;23;20272;-72
2023/09/17 07:37:40;;;;;;;6.63;6.03;;;21.10;99.90;;;;;;6084093;23;20271;-72
2023/09/17 07:40:06;;;;;;;5.47;4.97;;;21.10;99.90;;;;;;6085631;23;20196;-72
2023/09/17 07:42:32;;;;;;;6.13;5.63;;;21.20;99.90;;;;;;6085487;23;20556;-72
2023/09/17 07:44:57;;;;;;;5.30;4.90;;;21.20;99.90;;;;;;6065370;23;20408;-72
2023/09/17 07:47:23;;;;;;;4.67;4.27;;;21.40;99.90;;;;;;6113186;23;20132;-73
2023/09/17 07:49:50;;;;;;;5.10;4.70;;;21.40;99.90;;;;;;6090346;23;20140;-72
2023/09/17 07:52:16;;;;;;;5.60;5.10;;;21.50;99.90;;;;;;6112542;23;20408;-71
2023/09/17 07:54:43;;;;;;;4.50;4.07;;;21.60;99.90;;;;;;6112456;23;20605;-71
2023/09/17 07:57:13;;;;;;;5.63;5.13;;;21.60;99.90;;;;;;6110898;23;20369;-73
2023/09/17 07:59:39;;;;;;;5.50;5.00;;;21.70;99.90;;;;;;6064238;23;20168;-73
2023/09/17 08:02:04;;;;;;;5.40;5.00;;;21.70;99.90;;;;;;6110950;23;20367;-72
2023/09/17 08:04:30;;;;;;;5.33;4.80;;;21.80;99.90;;;;;;6111285;23;20165;-76
2023/09/17 08:06:57;;;;;;;5.60;5.10;;;21.80;99.90;;;;;;6111647;23;20152;-73
2023/09/17 08:09:23;;;;;;;5.60;4.67;;;21.90;99.90;;;;;;6111685;23;20226;-72
2023/09/17 08:11:49;;;;;;;7.13;5.20;;;22.00;99.90;;;;;;6112213;23;20372;-72
2023/09/17 08:14:15;;;;;;;5.07;4.67;;;22.10;99.90;;;;;;6114256;23;20846;-72
2023/09/17 08:16:41;;;;;;;4.80;4.40;;;22.10;99.90;;;;;;6064471;23;20384;-72
2023/09/17 08:19:06;;;;;;;7.10;4.20;;;22.20;99.90;;;;;;6114432;23;20797;-74
2023/09/17 08:21:32;;;;;;;5.20;4.70;;;22.20;99.90;;;;;;6085126;23;20411;-73
2023/09/17 08:23:59;;;;;;;5.20;4.70;;;22.30;99.90;;;;;;6111090;23;20175;-73
2023/09/17 08:26:29;;;;;;;5.17;4.60;;;22.30;99.90;;;;;;6113961;23;20369;-71
2023/09/17 08:29:00;;;;;;;5.47;4.97;;;22.50;99.90;;;;;;6087489;23;20427;-72
2023/09/17 08:31:28;;;;;;;5.40;4.87;;;22.50;99.90;;;;;;6098751;23;20432;-71
2023/09/17 08:33:54;;;;;;;5.33;4.83;;;22.60;99.90;;;;;;6112757;23;20440;-73
2023/09/17 08:36:21;;;;;;;4.93;4.50;;;22.60;99.90;;;;;;6112833;23;20357;-71
2023/09/17 08:38:49;;;;;;;4.73;4.33;;;22.70;99.90;;;;;;6108306;23;20379;-73
2023/09/17 08:41:19;;;;;;;5.13;4.33;;;22.70;99.90;;;;;;6109436;23;20361;-73
2023/09/17 08:43:46;;;;;;;5.13;4.63;;;22.80;99.90;;;;;;6083310;23;20471;-71
2023/09/17 08:46:12;;;;;;;5.50;4.80;;;22.80;99.90;;;;;;6110524;23;20420;-71
2023/09/17 08:48:38;;;;;;;4.40;4.00;;;22.90;99.90;;;;;;6109379;23;20444;-71
2023/09/17 08:51:04;;;;;;;5.40;5.00;;;22.90;99.90;;;;;;6085780;23;20381;-75
2023/09/17 08:53:44;;;;;;;4.80;4.40;;;22.90;99.90;;;;;;6113561;23;20420;-72
2023/09/17 08:56:12;;;;;;;5.57;5.07;;;23.00;99.90;;;;;;6112035;23;20639;-72
2023/09/17 08:58:43;;;;;;;3.90;3.53;;;23.00;99.90;;;;;;6112489;23;20369;-73
2023/09/17 09:01:13;;;;;;;4.40;3.97;;;23.00;99.90;;;;;;6112140;23;20389;-72
2023/09/17 09:03:39;;;;;;;4.17;3.83;;;23.10;99.90;;;;;;6086938;23;20408;-72
2023/09/17 09:06:07;;;;;;;4.87;4.10;;;23.20;99.90;;;;;;6111960;23;20372;-73
2023/09/17 09:08:34;;;;;;;4.90;3.53;;;23.30;99.90;;;;;;6111549;23;20408;-73
2023/09/17 09:11:00;;;;;;;5.30;4.80;;;23.40;99.90;;;;;;6111021;23;20396;-72
2023/09/17 09:13:26;;;;;;;4.67;4.27;;;23.50;99.90;;;;;;6110666;23;20416;-71
2023/09/17 09:15:53;;;;;;;5.00;4.50;;;23.60;99.90;;;;;;6108720;23;20166;-75
2023/09/17 09:18:19;;;;;;;4.73;4.30;;;23.50;99.90;;;;;;6107852;23;20376;-74
2023/09/17 09:20:44;;;;;;;7.40;5.50;;;23.60;99.90;;;;;;6105991;23;20381;-71
2023/09/17 09:23:10;;;;;;;4.97;4.47;;;23.60;99.90;;;;;;6106689;23;20168;-71
2023/09/17 09:25:36;;;;;;;4.60;4.17;;;23.70;99.90;;;;;;6111926;23;20152;-73
2023/09/17 09:28:06;;;;;;;4.67;4.27;;;23.70;99.90;;;;;;6110058;23;20165;-73
2023/09/17 09:30:32;;;;;;;4.13;3.73;;;23.80;99.90;;;;;;6106851;23;20220;-71
2023/09/17 09:32:58;;;;;;;4.73;4.33;;;23.80;99.90;;;;;;6107245;23;20770;-73
2023/09/17 09:35:24;;;;;;;6.00;4.40;;;23.90;99.90;;;;;;6107927;23;20377;-72
2023/09/17 09:37:51;;;;;;;4.60;4.20;;;24.00;99.90;;;;;;6108428;23;20376;-72
2023/09/17 09:40:17;;;;;;;6.40;4.93;;;24.10;99.90;;;;;;6109955;23;20768;-70
2023/09/17 09:42:43;;;;;;;5.17;4.77;;;24.10;99.90;;;;;;6114294;23;20365;-72
2023/09/17 09:45:15;;;;;;;5.53;4.50;;;24.10;99.90;;;;;;6090344;23;20379;-72
2023/09/17 09:47:48;;;;;;;6.10;4.07;;;24.20;99.90;;;;;;6111465;23;20156;-71
2023/09/17 09:50:27;;;;;;;6.10;4.10;;;24.20;99.90;;;;;;6118165;23;20397;-74
2023/09/17 09:52:54;;;;;;;4.93;4.37;;;24.30;99.90;;;;;;6118550;23;20408;-74
2023/09/17 09:55:24;;;;;;;4.63;4.23;;;24.30;99.90;;;;;;6117348;23;20388;-74
2023/09/17 09:57:52;;;;;;;4.07;3.77;;;24.30;99.90;;;;;;6092047;23;20380;-73
2023/09/17 10:00:26;;;;;;;4.47;3.57;;;24.40;99.80;;;;;;6118304;23;20439;-74
2023/09/17 10:02:55;;;;;;;4.13;3.83;;;24.40;98.80;;;;;;6115356;23;20369;-71
2023/09/17 10:05:34;;;;;;;4.47;4.10;;;24.50;97.80;;;;;;6117563;23;20760;-73
2023/09/17 10:08:00;;;;;;;5.20;4.70;;;24.60;97.60;;;;;;6115936;23;20436;-74
2023/09/17 10:10:27;;;;;;;4.20;3.80;;;24.60;97.60;;;;;;6114048;23;20369;-75
2023/09/17 10:12:53;;;;;;;5.53;4.60;;;24.70;96.90;;;;;;6116937;23;20423;-74
2023/09/17 10:15:20;;;;;;;4.73;4.33;;;24.90;96.10;;;;;;6114966;23;20391;-73
2023/09/17 10:17:48;;;;;;;3.87;3.50;;;25.00;95.00;;;;;;6109690;23;20389;-74
2023/09/17 10:20:15;;;;;;;4.63;4.10;;;25.00;94.80;;;;;;6088597;23;20377;-73
2023/09/17 10:22:42;;;;;;;3.70;3.37;;;25.10;93.80;;;;;;6117441;23;20380;-75
2023/09/17 10:25:09;;;;;;;4.97;3.80;;;25.20;93.10;;;;;;6114868;23;20428;-72
2023/09/17 10:27:36;;;;;;;4.13;3.53;;;25.30;92.60;;;;;;6116023;23;20369;-72
2023/09/17 10:30:04;;;;;;;4.37;3.97;;;25.40;91.40;;;;;;6090214;23;20497;-71
2023/09/17 10:32:32;;;;;;;4.53;4.13;;;25.50;88.70;;;;;;6088414;23;20404;-73
2023/09/17 10:35:02;;;;;;;4.80;4.40;;;25.40;87.50;;;;;;6033308;23;20502;-72
2023/09/17 10:37:31;;;;;;;4.37;3.97;;;25.30;87.00;;;;;;6083146;23;20362;-73
2023/09/17 10:39:57;;;;;;;3.53;3.23;;;25.30;87.00;;;;;;6060723;23;20624;-72
2023/09/17 10:42:25;;;;;;;5.80;4.90;;;25.40;86.80;;;;;;6057713;23;20449;-74
2023/09/17 10:44:53;;;;;;;5.50;5.07;;;25.50;85.20;;;;;;6057456;23;20402;-72
2023/09/17 10:47:21;;;;;;;4.40;3.83;;;25.60;83.60;;;;;;6059121;23;20358;-72
2023/09/17 10:49:50;;;;;;;3.97;3.67;;;25.80;83.00;;;;;;6036260;23;20413;-73
2023/09/17 10:52:17;;;;;;;4.07;3.67;;;25.80;81.30;;;;;;6035434;23;20421;-73
2023/09/17 10:54:44;;;;;;;3.67;3.23;;;25.80;80.70;;;;;;6059487;23;20421;-72
2023/09/17 10:57:29;;;;;;;3.57;3.30;;;25.70;81.00;;;;;;6084241;23;20455;-73
2023/09/17 10:59:57;;;;;;;4.30;3.90;;;25.80;81.50;;;;;;6084791;23;20477;-71
2023/09/17 11:02:26;;;;;;;4.07;3.77;;;25.80;80.50;;;;;;6060481;23;20377;-75
2023/09/17 11:04:51;;;;;;;5.23;3.10;;;25.80;80.70;;;;;;6011836;23;20456;-72
2023/09/17 11:07:19;;;;;;;3.90;3.60;;;26.10;80.00;;;;;;6084009;23;20453;-72
2023/09/17 11:09:45;;;;;;;5.60;3.57;;;26.20;77.30;;;;;;6083336;23;20144;-75
2023/09/17 11:12:12;;;;;;;3.80;3.50;;;26.50;75.60;;;;;;6083621;23;20362;-74
2023/09/17 11:14:38;;;;;;;3.50;3.20;;;26.60;73.50;;;;;;6058537;23;20405;-71
2023/09/17 11:17:04;;;;;;;3.83;3.53;;;26.60;71.80;;;;;;6084061;23;20389;-75
2023/09/17 11:19:30;;;;;;;3.60;3.30;;;26.50;70.60;;;;;;6083407;23;20185;-74
2023/09/17 11:22:16;;;;;;;4.23;3.87;;;26.40;71.20;;;;;;6083480;23;20562;-72
2023/09/17 11:24:44;;;;;;;5.03;3.50;;;26.40;70.90;;;;;;6083960;23;20169;-75
2023/09/17 11:27:12;;;;;;;3.77;3.47;;;26.60;70.60;;;;;;6058943;23;20442;-73
2023/09/17 11:29:39;;;;;;;3.20;2.90;;;26.80;68.80;;;;;;6059751;23;20373;-75
2023/09/17 11:32:04;;;;;;;3.07;2.77;;;26.90;68.10;;;;;;6063778;23;20424;-73
2023/09/17 11:34:34;;;;;;;3.73;3.33;;;27.00;67.70;;;;;;6113901;23;20399;-73
2023/09/17 11:37:04;;;;;;;3.17;2.80;;;27.00;66.60;;;;;;6067116;23;20360;-74
2023/09/17 11:39:35;;;;;;;3.90;3.57;;;27.00;67.20;;;;;;6067684;23;20825;-75
2023/09/17 11:42:12;;;;;;;3.50;3.20;;;27.10;67.10;;;;;;6116428;23;20355;-75
2023/09/17 11:44:40;;;;;;;3.80;3.50;;;27.10;66.50;;;;;;6092664;23;20426;-72
2023/09/17 11:47:07;;;;;;;3.40;2.90;;;27.20;65.80;;;;;;6089704;23;20356;-73
2023/09/17 11:49:34;;;;;;;3.63;3.33;;;27.00;62.70;;;;;;6115924;23;20679;-71
2023/09/17 11:51:59;;;;;;;3.40;3.10;;;27.00;63.40;;;;;;6091192;23;20361;-75
2023/09/17 11:54:33;;;;;;;3.60;3.30;;;26.90;63.80;;;;;;6067823;23;20405;-74
2023/09/17 11:57:00;;;;;;;6.10;3.50;;;26.90;63.70;;;;;;6114373;23;20147;-74
2023/09/17 11:59:39;;;;;;;3.50;3.20;;;27.00;63.90;;;;;;6090460;23;20360;-75
2023/09/17 12:02:06;;;;;;;3.70;3.33;;;27.20;63.30;;;;;;6085612;23;20448;-72
2023/09/17 12:04:37;;;;;;;3.00;2.67;;;27.30;61.00;;;;;;6091391;23;20389;-76
2023/09/17 12:07:08;;;;;;;3.30;3.00;;;27.30;61.30;;;;;;6091217;23;20381;-73
2023/09/17 12:10:00;;;;;;;4.40;3.43;;;27.30;60.90;;;;;;6086112;23;20445;-73
2023/09/17 12:12:28;;;;;;;4.10;3.30;;;27.40;60.60;;;;;;6075946;23;20425;-75
2023/09/17 12:14:55;;;;;;;3.93;3.63;;;27.30;60.60;;;;;;6087424;23;20417;-74
2023/09/17 12:17:21;;;;;;;3.90;3.50;;;27.20;60.90;;;;;;6084160;23;20373;-74
2023/09/17 12:19:49;;;;;;;3.10;2.80;;;27.00;61.30;;;;;;6085169;23;20369;-73
2023/09/17 12:22:15;;;;;;;3.20;2.90;;;26.90;61.60;;;;;;6083723;23;20825;-73
2023/09/17 12:25:07;;;;;;;2.83;2.63;;;26.80;62.20;;;;;;6085555;23;20417;-74
2023/09/17 12:27:46;;;;;;;3.50;2.97;;;26.80;62.70;;;;;;6039192;23;20378;-74
2023/09/17 12:30:16;;;;;;;2.80;2.60;;;26.90;63.10;;;;;;6085077;23;20400;-75
2023/09/17 12:32:42;;;;;;;3.67;3.10;;;26.90;63.30;;;;;;6038995;23;20425;-75
2023/09/17 12:35:13;;;;;;;3.40;3.10;;;26.90;63.20;;;;;;6085341;23;20370;-73
2023/09/17 12:37:38;;;;;;;3.30;2.97;;;27.00;63.30;;;;;;6087004;23;20382;-76
2023/09/17 12:40:07;;;;;;;3.27;2.90;;;27.10;63.20;;;;;;6086928;23;20401;-75
2023/09/17 12:42:33;;;;;;;3.63;3.33;;;27.10;63.10;;;;;;6059500;23;20248;-73
2023/09/17 12:44:59;;;;;;;3.37;3.07;;;27.30;63.00;;;;;;6059436;23;20389;-73
2023/09/17 12:47:26;;;;;;;3.23;2.93;;;27.40;62.20;;;;;;6084555;23;20437;-74